Lebanon, Missouri
Current Conditions -  °F | °C
As of 10:15 PM on Wednesday 17 Dec 2014 (Local Time) from KH21 Reporting Station
Light Snow Light Snow  
Wind Chill: 27°   Ceiling: 4600
Heat Index: 32°   Visibility: 4mi
Dew Point: 30°   Wind: 5mph
Humidity: 93%   Direction: 110°ESE
Pressure: 30.25"   Gusts: NA
Location:  37.68°N, 92.66°W
Report Text: KH21 180415Z AUTO 11004KT 4SM -SN SCT014 SCT022 OVC046 00/M01 A3025 RMK AO2
Loading
Personal Weather Stations






























Interactive Weather Map New forecast layout! Learn more

10-Day Weather Forecast

Advertisements
Track Severe Weather on mobile